createdAt,value
2023-10-22T00:00:27.755Z,99469.53
2023-10-22T00:05:29.277Z,99473.31
2023-10-22T00:10:30.892Z,99480.91
2023-10-22T00:15:32.423Z,99478.56
2023-10-22T00:20:34.393Z,99484.44
2023-10-22T00:25:37.110Z,99461.94
2023-10-22T00:30:38.778Z,99480.69
2023-10-22T00:35:40.390Z,99483.81
2023-10-22T00:40:41.910Z,99489.28
2023-10-22T00:45:43.673Z,99485.72
2023-10-22T00:50:45.414Z,99473.09
2023-10-22T00:55:48.264Z,99481.94
2023-10-22T01:00:49.903Z,99473.72
2023-10-22T01:05:51.546Z,99478.34
2023-10-22T01:10:53.125Z,99468.06
2023-10-22T01:15:54.661Z,99469.75
2023-10-22T01:20:56.487Z,99471.44
2023-10-22T01:25:58.052Z,99487.00
2023-10-22T01:30:59.762Z,99480.69
2023-10-22T01:36:01.493Z,99477.13
2023-10-22T01:41:07.438Z,99478.56
2023-10-22T01:46:09.023Z,99488.47
2023-10-22T01:51:10.655Z,99481.13
2023-10-22T01:56:12.181Z,99485.31
2023-10-22T02:01:13.903Z,99484.47
2023-10-22T02:06:16.119Z,99485.13
2023-10-22T02:11:19.725Z,99487.00
2023-10-22T02:16:21.317Z,99486.16
2023-10-22T02:21:27.219Z,99499.41
2023-10-22T02:26:28.813Z,99495.63
2023-10-22T02:31:30.563Z,99499.19
2023-10-22T02:36:32.736Z,99509.72
2023-10-22T02:41:34.790Z,99507.59
2023-10-22T02:46:36.618Z,99514.97
2023-10-22T02:51:38.199Z,99527.38
2023-10-22T02:56:40.739Z,99539.16
2023-10-22T03:01:42.461Z,99550.31
2023-10-22T03:06:44.010Z,99559.78
2023-10-22T03:11:45.625Z,99579.34
2023-10-22T03:16:48.705Z,99582.09
2023-10-22T03:21:50.366Z,99602.69
2023-10-22T03:26:51.936Z,99603.13
2023-10-22T03:31:53.476Z,99619.56
2023-10-22T03:36:55.101Z,99631.94
2023-10-22T03:41:56.652Z,99660.78
2023-10-22T03:46:58.178Z,99669.63
2023-10-22T03:52:00.094Z,99693.00
2023-10-22T03:57:01.721Z,99708.75
2023-10-22T04:02:03.585Z,99720.13
2023-10-22T04:07:05.241Z,99732.69
2023-10-22T04:12:07.234Z,99758.97
2023-10-22T04:17:08.974Z,99768.22
2023-10-22T04:22:10.486Z,99787.13
2023-10-22T04:27:12.663Z,99801.56
2023-10-22T04:32:14.543Z,99816.06
2023-10-22T04:37:18.337Z,99836.03
2023-10-22T04:42:19.937Z,99854.94
2023-10-22T04:47:22.188Z,99875.47
2023-10-22T04:52:32.248Z,99896.06
2023-10-22T04:57:34.014Z,99910.94
2023-10-22T05:02:35.965Z,99915.84
2023-10-22T05:07:37.662Z,99936.81
2023-10-22T05:12:39.339Z,99943.66
2023-10-22T05:17:41.529Z,99945.28
2023-10-22T05:22:45.544Z,99958.00
2023-10-22T05:27:47.533Z,99970.59
2023-10-22T05:32:49.254Z,99978.44
2023-10-22T05:37:53.043Z,99986.63
2023-10-22T05:42:54.522Z,99992.47
2023-10-22T05:47:56.147Z,100006.09
2023-10-22T05:52:57.766Z,100021.00
2023-10-22T05:57:59.289Z,100049.81
2023-10-22T06:03:00.992Z,100052.66
2023-10-22T06:08:02.791Z,100065.56
2023-10-22T06:13:04.292Z,100082.72
2023-10-22T06:18:06.613Z,100101.13
2023-10-22T06:23:08.195Z,100107.84
2023-10-22T06:28:09.813Z,100124.59
2023-10-22T06:33:11.494Z,100140.47
2023-10-22T06:38:13.310Z,100156.72
2023-10-22T06:43:14.901Z,100159.47
2023-10-22T06:48:16.530Z,100172.25
2023-10-22T06:53:18.494Z,100180.81
2023-10-22T06:58:25.960Z,100184.09
2023-10-22T07:03:27.737Z,100191.78
2023-10-22T07:08:30.047Z,100208.44
2023-10-22T07:13:31.573Z,100222.59
2023-10-22T07:18:33.269Z,100239.81
2023-10-22T07:23:34.955Z,100249.53
2023-10-22T07:28:42.360Z,100257.03
2023-10-22T07:33:44.344Z,100269.38
2023-10-22T07:38:49.437Z,100267.00
2023-10-22T07:43:51.245Z,100276.56
2023-10-22T07:48:52.822Z,100272.19
2023-10-22T07:53:54.477Z,100279.69
2023-10-22T07:58:57.240Z,100294.22
2023-10-22T08:03:59.123Z,100295.41
2023-10-22T08:09:00.710Z,100317.28
2023-10-22T08:14:02.262Z,100330.16
2023-10-22T08:19:04.098Z,100333.97
2023-10-22T08:24:06.330Z,100342.25
2023-10-22T08:29:09.405Z,100356.75
2023-10-22T08:34:10.974Z,100364.97
2023-10-22T08:39:12.744Z,100368.75
2023-10-22T08:44:15.526Z,100369.38
2023-10-22T08:49:20.790Z,100377.16
2023-10-22T08:54:23.768Z,100387.13
2023-10-22T08:59:25.476Z,100378.50
2023-10-22T09:04:27.046Z,100387.16
2023-10-22T09:09:30.204Z,100401.16
2023-10-22T09:14:31.920Z,100404.66
2023-10-22T09:19:37.804Z,100414.41
2023-10-22T09:24:50.346Z,100432.84
2023-10-22T09:29:52.889Z,100434.16
2023-10-22T09:34:54.549Z,100419.47
2023-10-22T09:39:56.052Z,100432.13
2023-10-22T09:44:57.573Z,100447.25
2023-10-22T09:50:05.944Z,100459.50
2023-10-22T09:55:11.647Z,100475.41
2023-10-22T10:00:14.111Z,100491.81
2023-10-22T10:05:16.469Z,100486.84
2023-10-22T10:10:18.285Z,100485.72
2023-10-22T10:15:36.366Z,100497.31
2023-10-22T10:20:41.057Z,100506.28
2023-10-22T10:25:44.082Z,100509.19
2023-10-22T10:30:45.680Z,100518.69
2023-10-22T10:35:49.191Z,100518.94
2023-10-22T10:40:56.879Z,100531.75
2023-10-22T10:46:25.089Z,100526.50
2023-10-22T10:51:26.717Z,100541.50
2023-10-22T10:56:47.404Z,100537.50
2023-10-22T11:02:11.395Z,100533.34
2023-10-22T11:07:25.947Z,100532.97
2023-10-22T11:12:30.346Z,100535.03
2023-10-22T11:17:32.219Z,100527.81
2023-10-22T11:22:34.102Z,100537.53
2023-10-22T11:27:39.608Z,100550.63
2023-10-22T11:32:48.737Z,100557.94
2023-10-22T11:37:50.726Z,100559.03
2023-10-22T11:42:52.490Z,100563.50
2023-10-22T11:48:20.422Z,100574.22
2023-10-22T11:53:22.038Z,100575.03
2023-10-22T11:58:28.257Z,100595.34
2023-10-22T12:03:30.012Z,100590.44
2023-10-22T12:08:31.672Z,100603.13
2023-10-22T12:13:33.214Z,100602.31
2023-10-22T12:18:34.820Z,100606.19
2023-10-22T12:23:48.852Z,100615.63
2023-10-22T12:28:51.978Z,100625.13
2023-10-22T12:33:53.520Z,100643.00
2023-10-22T12:38:55.847Z,100643.50
2023-10-22T12:43:57.494Z,100646.72
2023-10-22T12:49:00.885Z,100642.97
2023-10-22T12:54:05.654Z,100657.81
2023-10-22T12:59:07.274Z,100661.94
2023-10-22T13:04:09.046Z,100651.59
2023-10-22T13:09:10.770Z,100673.38
2023-10-22T13:14:12.370Z,100680.25
2023-10-22T13:19:13.908Z,100686.81
2023-10-22T13:24:15.641Z,100683.88
2023-10-22T13:29:18.826Z,100691.84
2023-10-22T13:34:20.411Z,100686.72
2023-10-22T13:39:22.116Z,100701.28
2023-10-22T13:44:23.721Z,100697.41
2023-10-22T13:49:25.266Z,100701.22
2023-10-22T13:54:26.882Z,100708.09
2023-10-22T13:59:28.536Z,100715.97
2023-10-22T14:04:30.291Z,100718.22
2023-10-22T14:09:32.021Z,100727.31
2023-10-22T14:14:38.468Z,100734.06
2023-10-22T14:19:40.188Z,100738.81
2023-10-22T14:24:41.740Z,100744.22
2023-10-22T14:29:43.612Z,100748.47
2023-10-22T14:34:45.457Z,100751.53
2023-10-22T14:39:47.054Z,100759.97
2023-10-22T14:44:48.666Z,100768.94
2023-10-22T14:49:50.220Z,100763.56
2023-10-22T14:54:51.738Z,100767.44
2023-10-22T14:59:53.274Z,100772.25
2023-10-22T15:04:55.801Z,100772.38
2023-10-22T15:09:58.318Z,100783.22
2023-10-22T15:14:59.951Z,100787.28
2023-10-22T15:20:01.491Z,100789.53
2023-10-22T15:25:03.338Z,100809.50
2023-10-22T15:30:05.972Z,100812.44
2023-10-22T15:35:07.674Z,100820.16
2023-10-22T15:40:09.656Z,100820.34
2023-10-22T15:45:11.269Z,100836.38
2023-10-22T15:50:16.092Z,100840.69
2023-10-22T15:55:18.155Z,100840.88
2023-10-22T16:00:22.835Z,100838.19
2023-10-22T16:05:24.553Z,100849.09
2023-10-22T16:10:26.909Z,100849.66
2023-10-22T16:15:29.705Z,100863.59
2023-10-22T16:20:31.367Z,100865.56
2023-10-22T16:25:33.224Z,100876.03
2023-10-22T16:30:34.778Z,100878.81
2023-10-22T16:35:36.291Z,100881.38
2023-10-22T16:40:39.784Z,100887.59
2023-10-22T16:45:46.937Z,100892.25
2023-10-22T16:50:48.648Z,100910.56
2023-10-22T16:55:50.196Z,100904.09
2023-10-22T17:00:51.776Z,100902.59
2023-10-22T17:05:54.675Z,100916.06
2023-10-22T17:10:56.241Z,100921.00
2023-10-22T17:16:00.988Z,100925.06
2023-10-22T17:21:03.253Z,100929.69
2023-10-22T17:26:04.840Z,100930.81
2023-10-22T17:31:06.449Z,100938.63
2023-10-22T17:36:08.111Z,100948.69
2023-10-22T17:41:09.690Z,100960.91
2023-10-22T17:46:15.628Z,100968.56
2023-10-22T17:51:17.287Z,100974.19
2023-10-22T17:56:19.325Z,100981.72
2023-10-22T18:01:20.930Z,100989.06
2023-10-22T18:06:22.714Z,100994.31
2023-10-22T18:11:26.242Z,100999.41
2023-10-22T18:16:27.951Z,100993.91
2023-10-22T18:21:29.865Z,100998.63
2023-10-22T18:26:31.516Z,101006.75
2023-10-22T18:31:33.213Z,101004.84
2023-10-22T18:36:34.959Z,101016.22
2023-10-22T18:41:36.560Z,101016.81
2023-10-22T18:46:39.368Z,101016.31
2023-10-22T18:51:41.365Z,101020.38
2023-10-22T18:56:43.007Z,101030.19
2023-10-22T19:01:44.625Z,101037.50
2023-10-22T19:06:46.215Z,101034.38
2023-10-22T19:11:48.210Z,101047.63
2023-10-22T19:16:49.854Z,101053.53
2023-10-22T19:21:52.616Z,101065.75
2023-10-22T19:26:54.171Z,101063.66
2023-10-22T19:31:55.699Z,101065.84
2023-10-22T19:36:57.600Z,101076.06
2023-10-22T19:41:59.246Z,101075.50
2023-10-22T19:47:00.871Z,101071.91
2023-10-22T19:52:04.026Z,101078.69
2023-10-22T19:57:07.684Z,101079.31
2023-10-22T20:02:17.991Z,101091.91
2023-10-22T20:07:20.216Z,101086.72
2023-10-22T20:12:22.219Z,101098.31
2023-10-22T20:17:23.807Z,101098.47
2023-10-22T20:22:25.383Z,101106.78
2023-10-22T20:27:26.972Z,101112.38
2023-10-22T20:32:28.657Z,101119.84
2023-10-22T20:37:30.174Z,101119.59
2023-10-22T20:42:32.777Z,101110.06
2023-10-22T20:47:34.365Z,101125.03
2023-10-22T20:52:38.364Z,101127.47
2023-10-22T20:57:40.106Z,101130.50
2023-10-22T21:02:43.226Z,101131.81
2023-10-22T21:07:44.749Z,101127.94
2023-10-22T21:12:48.511Z,101140.69
2023-10-22T21:17:50.365Z,101141.44
2023-10-22T21:22:54.845Z,101139.72
2023-10-22T21:27:56.379Z,101146.00
2023-10-22T21:32:58.062Z,101149.16
2023-10-22T21:38:00.060Z,101141.59
2023-10-22T21:43:01.921Z,101147.22
2023-10-22T21:48:03.504Z,101149.78
2023-10-22T21:53:05.078Z,101144.66
2023-10-22T21:58:06.837Z,101166.09
2023-10-22T22:03:08.426Z,101160.81
2023-10-22T22:08:10.114Z,101167.38
2023-10-22T22:13:12.192Z,101166.97
2023-10-22T22:18:13.848Z,101161.00
2023-10-22T22:23:15.494Z,101159.00
2023-10-22T22:28:16.996Z,101178.72
2023-10-22T22:33:18.807Z,101184.59
2023-10-22T22:38:20.449Z,101181.34
2023-10-22T22:43:22.561Z,101187.06
2023-10-22T22:48:24.233Z,101192.78
2023-10-22T22:53:25.841Z,101197.53
2023-10-22T22:58:27.344Z,101199.97
2023-10-22T23:03:28.937Z,101193.34
2023-10-22T23:08:30.492Z,101202.69
2023-10-22T23:13:32.032Z,101209.66
2023-10-22T23:18:33.594Z,101207.25
2023-10-22T23:23:35.185Z,101218.25
2023-10-22T23:28:36.698Z,101207.69
2023-10-22T23:33:38.309Z,101228.28
2023-10-22T23:38:39.972Z,101223.16
2023-10-22T23:43:41.534Z,101227.69
2023-10-22T23:48:43.127Z,101228.25
2023-10-22T23:53:44.698Z,101235.13
2023-10-22T23:58:46.217Z,101245.41
